createdAt,value
2016-10-31T00:00:19.386Z,0
2016-10-31T00:01:19.610Z,0
2016-10-31T00:02:19.570Z,0
2016-10-31T00:03:19.827Z,0
2016-10-31T00:04:19.534Z,0
2016-10-31T00:05:19.147Z,0
2016-10-31T00:06:18.814Z,0
2016-10-31T00:07:19.681Z,0
2016-10-31T00:08:19.341Z,0
2016-10-31T00:09:19.289Z,0
2016-10-31T00:10:19.253Z,0
2016-10-31T00:11:19.518Z,0
2016-10-31T00:12:18.907Z,0
2016-10-31T00:13:19.136Z,0
2016-10-31T00:14:18.810Z,0
2016-10-31T00:15:19.102Z,0
2016-10-31T00:16:19.332Z,0
2016-10-31T00:17:18.684Z,0
2016-10-31T00:18:19.245Z,0
2016-10-31T00:19:19.213Z,0
2016-10-31T00:20:18.872Z,0
2016-10-31T00:21:19.125Z,0
2016-10-31T00:22:19.090Z,0
2016-10-31T00:23:18.745Z,0
2016-10-31T00:24:18.711Z,0
2016-10-31T00:25:19.001Z,0
2016-10-31T00:26:18.957Z,0
2016-10-31T00:27:18.898Z,0
2016-10-31T00:28:18.558Z,0
2016-10-31T00:29:18.819Z,0
2016-10-31T00:30:18.781Z,0
2016-10-31T00:31:18.134Z,0
2016-10-31T00:32:18.697Z,0
2016-10-31T00:33:18.712Z,0
2016-10-31T00:34:18.626Z,0
2016-10-31T00:35:18.591Z,0
2016-10-31T00:36:18.246Z,0
2016-10-31T00:37:18.507Z,0
2016-10-31T00:38:18.464Z,0
2016-10-31T00:39:18.126Z,0
2016-10-31T00:40:18.434Z,0
2016-10-31T00:41:18.353Z,0
2016-10-31T00:42:18.001Z,0
2016-10-31T00:43:18.268Z,0
2016-10-31T00:44:17.926Z,0
2016-10-31T00:45:18.199Z,0
2016-10-31T00:46:17.871Z,0
2016-10-31T00:47:18.115Z,0
2016-10-31T00:48:18.072Z,0
2016-10-31T00:49:17.764Z,0
2016-10-31T00:50:17.692Z,0
2016-10-31T00:51:17.052Z,0
2016-10-31T00:52:17.313Z,0
2016-10-31T00:53:17.877Z,0
2016-10-31T00:54:17.240Z,0
2016-10-31T00:55:17.497Z,0
2016-10-31T00:56:17.457Z,0
2016-10-31T00:57:17.417Z,0
2016-10-31T00:58:17.413Z,0
2016-10-31T00:59:17.656Z,0
2016-10-31T01:00:17.307Z,0
2016-10-31T01:01:17.260Z,0
2016-10-31T01:02:17.571Z,0
2016-10-31T01:03:16.889Z,0
2016-10-31T01:04:17.446Z,0
2016-10-31T01:05:17.108Z,0
2016-10-31T01:06:17.374Z,0
2016-10-31T01:07:17.337Z,0
2016-10-31T01:08:17.299Z,0
2016-10-31T01:09:17.257Z,0
2016-10-31T01:10:16.918Z,0
2016-10-31T01:11:16.917Z,0
2016-10-31T01:12:17.134Z,0
2016-10-31T01:13:16.835Z,0
2016-10-31T01:14:16.763Z,0
2016-10-31T01:15:17.014Z,0
2016-10-31T01:16:16.675Z,0
2016-10-31T01:17:16.693Z,0
2016-10-31T01:18:16.910Z,0
2016-10-31T01:19:16.561Z,0
2016-10-31T01:20:16.524Z,0
2016-10-31T01:21:16.776Z,0
2016-10-31T01:22:16.442Z,0
2016-10-31T01:23:16.104Z,0
2016-10-31T01:24:15.760Z,0
2016-10-31T01:25:16.641Z,0
2016-10-31T01:26:16.585Z,0
2016-10-31T01:27:15.947Z,0
2016-10-31T01:28:16.202Z,0
2016-10-31T01:29:16.467Z,0
2016-10-31T01:30:15.829Z,0
2016-10-31T01:31:16.423Z,0
2016-10-31T01:32:16.351Z,0
2016-10-31T01:33:15.712Z,0
2016-10-31T01:34:15.673Z,0
2016-10-31T01:35:16.233Z,0
2016-10-31T01:36:15.590Z,0
2016-10-31T01:37:15.848Z,0
2016-10-31T01:38:15.833Z,0
2016-10-31T01:39:15.776Z,0
2016-10-31T01:40:15.427Z,0
2016-10-31T01:41:16.004Z,0
2016-10-31T01:42:15.347Z,0
2016-10-31T01:43:15.916Z,0
2016-10-31T01:44:15.270Z,0
2016-10-31T01:45:15.843Z,0
2016-10-31T01:46:15.806Z,0
2016-10-31T01:47:15.458Z,0
2016-10-31T01:48:15.419Z,0
2016-10-31T01:49:15.684Z,0
2016-10-31T01:50:15.379Z,0
2016-10-31T01:51:15.303Z,0
2016-10-31T01:52:15.564Z,0
2016-10-31T01:53:15.522Z,0
2016-10-31T01:54:15.525Z,0
2016-10-31T01:55:14.843Z,0
2016-10-31T01:56:15.413Z,0
2016-10-31T01:57:15.069Z,0
2016-10-31T01:58:15.328Z,0
2016-10-31T01:59:14.684Z,0
2016-10-31T02:00:15.248Z,0
2016-10-31T02:01:14.910Z,0
2016-10-31T02:02:14.878Z,0
2016-10-31T02:03:14.556Z,0
2016-10-31T02:04:14.791Z,0
2016-10-31T02:05:15.055Z,0
2016-10-31T02:06:14.410Z,0
2016-10-31T02:07:14.973Z,0
2016-10-31T02:08:14.323Z,0
2016-10-31T02:09:14.897Z,0
2016-10-31T02:10:14.867Z,0
2016-10-31T02:11:14.209Z,0
2016-10-31T02:12:14.168Z,0
2016-10-31T02:13:14.739Z,0
2016-10-31T02:14:14.124Z,0
2016-10-31T02:15:14.653Z,0
2016-10-31T02:16:14.325Z,0
2016-10-31T02:17:13.967Z,0
2016-10-31T02:18:14.535Z,0
2016-10-31T02:19:14.503Z,0
2016-10-31T02:20:14.151Z,0
2016-10-31T02:21:14.449Z,0
2016-10-31T02:22:13.814Z,0
2016-10-31T02:23:14.353Z,0
2016-10-31T02:24:14.332Z,0
2016-10-31T02:25:14.266Z,0
2016-10-31T02:26:13.914Z,0
2016-10-31T02:27:13.581Z,0
2016-10-31T02:28:14.174Z,0
2016-10-31T02:29:13.794Z,0
2016-10-31T02:30:13.758Z,0
2016-10-31T02:31:13.732Z,0
2016-10-31T02:32:13.685Z,0
2016-10-31T02:33:13.645Z,0
2016-10-31T02:34:13.314Z,0
2016-10-31T02:35:13.563Z,0
2016-10-31T02:36:13.827Z,0
2016-10-31T02:37:13.481Z,0
2016-10-31T02:38:13.147Z,0
2016-10-31T02:39:13.443Z,0
2016-10-31T02:40:13.363Z,0
2016-10-31T02:41:13.323Z,0
2016-10-31T02:42:13.287Z,0
2016-10-31T02:43:13.547Z,0
2016-10-31T02:44:13.202Z,0
2016-10-31T02:45:13.481Z,0
2016-10-31T02:46:12.836Z,0
2016-10-31T02:47:13.394Z,0
2016-10-31T02:48:13.046Z,0
2016-10-31T02:49:13.012Z,0
2016-10-31T02:50:13.010Z,0
2016-10-31T02:51:12.924Z,0
2016-10-31T02:52:12.891Z,0
2016-10-31T02:53:13.151Z,0
2016-10-31T02:54:12.838Z,0
2016-10-31T02:55:12.797Z,0
2016-10-31T02:56:12.765Z,0
2016-10-31T02:57:12.990Z,0
2016-10-31T02:58:12.984Z,0
2016-10-31T02:59:12.911Z,0
2016-10-31T03:00:12.569Z,0
2016-10-31T03:01:12.231Z,0
2016-10-31T03:02:12.496Z,0
2016-10-31T03:03:12.453Z,0
2016-10-31T03:04:12.412Z,0
2016-10-31T03:05:12.065Z,0
2016-10-31T03:06:12.328Z,0
2016-10-31T03:07:12.598Z,0
2016-10-31T03:08:12.251Z,0
2016-10-31T03:09:12.516Z,0
2016-10-31T03:10:12.481Z,0
2016-10-31T03:11:12.133Z,0
2016-10-31T03:12:12.386Z,0
2016-10-31T03:13:11.751Z,0
2016-10-31T03:14:12.021Z,0
2016-10-31T03:15:12.274Z,0
2016-10-31T03:16:12.231Z,0
2016-10-31T03:17:12.197Z,0
2016-10-31T03:18:11.884Z,0
2016-10-31T03:19:11.814Z,0
2016-10-31T03:20:12.071Z,0
2016-10-31T03:21:12.034Z,0
2016-10-31T03:22:12.002Z,0
2016-10-31T03:23:11.650Z,0
2016-10-31T03:24:11.615Z,0
2016-10-31T03:25:11.604Z,0
2016-10-31T03:26:11.572Z,0
2016-10-31T03:27:11.547Z,0
2016-10-31T03:28:11.445Z,0
2016-10-31T03:29:11.404Z,0
2016-10-31T03:30:11.392Z,0
2016-10-31T03:31:11.326Z,0
2016-10-31T03:32:11.600Z,0
2016-10-31T03:33:11.255Z,0
2016-10-31T03:34:11.509Z,0
2016-10-31T03:35:11.172Z,0
2016-10-31T03:36:10.862Z,0
2016-10-31T03:37:11.089Z,0
2016-10-31T03:38:11.387Z,0
2016-10-31T03:39:10.749Z,0
2016-10-31T03:40:10.971Z,0
2016-10-31T03:41:10.929Z,0
2016-10-31T03:42:10.882Z,0
2016-10-31T03:43:10.847Z,0
2016-10-31T03:44:10.812Z,0
2016-10-31T03:45:11.068Z,0
2016-10-31T03:46:10.425Z,0
2016-10-31T03:47:10.388Z,0
2016-10-31T03:48:10.953Z,0
2016-10-31T03:49:10.959Z,0
2016-10-31T03:50:10.274Z,0
2016-10-31T03:51:10.829Z,0
2016-10-31T03:52:10.525Z,0
2016-10-31T03:53:10.744Z,0
2016-10-31T03:54:10.409Z,0
2016-10-31T03:55:10.670Z,0
2016-10-31T03:56:10.633Z,0
2016-10-31T03:57:10.589Z,0
2016-10-31T03:58:10.298Z,0
2016-10-31T03:59:10.210Z,0
2016-10-31T04:00:10.502Z,0
2016-10-31T04:01:10.119Z,0
2016-10-31T04:02:10.388Z,0
2016-10-31T04:03:10.045Z,0
2016-10-31T04:04:10.310Z,0
2016-10-31T04:05:09.661Z,0
2016-10-31T04:06:09.922Z,0
2016-10-31T04:07:10.193Z,0
2016-10-31T04:08:09.537Z,0
2016-10-31T04:09:10.105Z,0
2016-10-31T04:10:09.458Z,0
2016-10-31T04:11:10.025Z,0
2016-10-31T04:12:09.397Z,0
2016-10-31T04:13:09.643Z,0
2016-10-31T04:14:09.909Z,0
2016-10-31T04:15:09.872Z,0
2016-10-31T04:16:09.823Z,0
2016-10-31T04:17:09.786Z,0
2016-10-31T04:18:09.447Z,0
2016-10-31T04:19:09.101Z,0
2016-10-31T04:20:09.666Z,0
2016-10-31T04:21:09.620Z,0
2016-10-31T04:22:08.978Z,0
2016-10-31T04:23:09.241Z,0
2016-10-31T04:24:08.912Z,0
2016-10-31T04:25:09.462Z,0
2016-10-31T04:26:09.425Z,0
2016-10-31T04:27:09.079Z,0
2016-10-31T04:28:08.769Z,0
2016-10-31T04:29:08.998Z,0
2016-10-31T04:30:08.964Z,0
2016-10-31T04:31:08.926Z,0
2016-10-31T04:32:08.884Z,0
2016-10-31T04:33:09.136Z,0
2016-10-31T04:34:08.801Z,0
2016-10-31T04:35:08.757Z,0
2016-10-31T04:36:08.713Z,0
2016-10-31T04:37:08.982Z,0
2016-10-31T04:38:08.648Z,0
2016-10-31T04:39:08.294Z,0
2016-10-31T04:40:07.952Z,0
2016-10-31T04:41:08.220Z,0
2016-10-31T04:42:08.781Z,0
2016-10-31T04:43:08.736Z,0
2016-10-31T04:44:08.736Z,0
2016-10-31T04:45:08.353Z,0
2016-10-31T04:46:08.318Z,0
2016-10-31T04:47:08.617Z,0
2016-10-31T04:48:07.934Z,0
2016-10-31T04:49:08.187Z,0
2016-10-31T04:50:08.151Z,0
2016-10-31T04:51:08.408Z,0
2016-10-31T04:52:08.370Z,0
2016-10-31T04:53:08.347Z,0
2016-10-31T04:54:08.331Z,0
2016-10-31T04:55:07.951Z,0
2016-10-31T04:56:07.607Z,0
2016-10-31T04:57:07.864Z,0
2016-10-31T04:58:08.162Z,0
2016-10-31T04:59:07.498Z,0
2016-10-31T05:00:07.753Z,0
2016-10-31T05:01:07.404Z,0
2016-10-31T05:02:08.010Z,0
2016-10-31T05:03:07.626Z,0
2016-10-31T05:04:07.585Z,0
2016-10-31T05:05:07.548Z,0
2016-10-31T05:06:07.810Z,0
2016-10-31T05:07:07.202Z,0
2016-10-31T05:08:07.121Z,0
2016-10-31T05:09:07.682Z,0
2016-10-31T05:10:07.642Z,0
2016-10-31T05:11:07.303Z,0
2016-10-31T05:12:07.276Z,0
2016-10-31T05:13:07.557Z,0
2016-10-31T05:14:07.185Z,0
2016-10-31T05:15:07.451Z,0
2016-10-31T05:16:07.399Z,0
2016-10-31T05:17:07.367Z,0
2016-10-31T05:18:07.319Z,0
2016-10-31T05:19:07.281Z,0
2016-10-31T05:20:07.241Z,0
2016-10-31T05:21:07.200Z,0
2016-10-31T05:22:06.859Z,0
2016-10-31T05:23:06.520Z,0
2016-10-31T05:24:06.784Z,0
2016-10-31T05:25:07.042Z,0
2016-10-31T05:26:06.995Z,0
2016-10-31T05:27:06.352Z,0
2016-10-31T05:28:06.317Z,0
2016-10-31T05:29:05.976Z,0
2016-10-31T05:30:06.839Z,0
2016-10-31T05:31:06.500Z,0
2016-10-31T05:32:06.758Z,0
2016-10-31T05:33:06.728Z,0
2016-10-31T05:34:06.369Z,0
2016-10-31T05:35:06.668Z,0
2016-10-31T05:36:06.338Z,0
2016-10-31T05:37:06.251Z,0
2016-10-31T05:38:06.229Z,0
2016-10-31T05:39:06.479Z,0
2016-10-31T05:40:06.128Z,0
2016-10-31T05:41:06.100Z,0
2016-10-31T05:42:06.097Z,0
2016-10-31T05:43:06.316Z,0
2016-10-31T05:44:06.273Z,0
2016-10-31T05:45:06.238Z,0
2016-10-31T05:46:05.886Z,0
2016-10-31T05:47:06.150Z,0
2016-10-31T05:48:05.816Z,0
2016-10-31T05:49:06.067Z,0
2016-10-31T05:50:06.029Z,0
2016-10-31T05:51:05.687Z,0
2016-10-31T05:52:05.700Z,0
2016-10-31T05:53:05.905Z,0
2016-10-31T05:54:05.277Z,0
2016-10-31T05:55:05.824Z,0
2016-10-31T05:56:05.790Z,5
2016-10-31T05:57:05.453Z,5
2016-10-31T05:58:05.406Z,5
2016-10-31T05:59:05.665Z,5
2016-10-31T06:00:05.625Z,5
2016-10-31T06:01:05.598Z,5
2016-10-31T06:02:05.549Z,5
2016-10-31T06:03:05.212Z,5
2016-10-31T06:04:05.160Z,5
2016-10-31T06:05:05.126Z,10
2016-10-31T06:06:04.813Z,10
2016-10-31T06:07:05.348Z,10
2016-10-31T06:08:05.315Z,10
2016-10-31T06:09:04.961Z,10
2016-10-31T06:10:04.915Z,15
2016-10-31T06:11:04.880Z,15
2016-10-31T06:12:05.149Z,15
2016-10-31T06:13:05.097Z,15
2016-10-31T06:14:05.062Z,20
2016-10-31T06:15:05.029Z,20
2016-10-31T06:16:04.679Z,20
2016-10-31T06:17:04.333Z,25
2016-10-31T06:18:04.290Z,25
2016-10-31T06:19:04.547Z,25
2016-10-31T06:20:04.215Z,30
2016-10-31T06:21:04.778Z,30
2016-10-31T06:22:04.743Z,30
2016-10-31T06:23:04.092Z,35
2016-10-31T06:24:04.656Z,40
2016-10-31T06:25:04.011Z,40
2016-10-31T06:26:04.573Z,45
2016-10-31T06:27:04.278Z,45
2016-10-31T06:28:04.212Z,45
2016-10-31T06:29:03.854Z,45
2016-10-31T06:30:04.462Z,45
2016-10-31T06:31:04.372Z,50
2016-10-31T06:32:04.337Z,50
2016-10-31T06:33:04.324Z,55
2016-10-31T06:34:03.980Z,55
2016-10-31T06:35:03.928Z,60
2016-10-31T06:36:03.863Z,60
2016-10-31T06:37:04.135Z,65
2016-10-31T06:38:04.089Z,70
2016-10-31T06:39:03.741Z,75
2016-10-31T06:40:04.012Z,75
2016-10-31T06:41:03.990Z,75
2016-10-31T06:42:03.927Z,75
2016-10-31T06:43:03.885Z,80
2016-10-31T06:44:03.843Z,85
2016-10-31T06:45:03.503Z,95
2016-10-31T06:46:03.781Z,95
2016-10-31T06:47:03.421Z,95
2016-10-31T06:48:03.682Z,95
2016-10-31T06:49:03.642Z,105
2016-10-31T06:50:02.999Z,110
2016-10-31T06:51:03.575Z,100
2016-10-31T06:52:03.222Z,105
2016-10-31T06:54:03.442Z,115
2016-10-31T06:55:03.100Z,125
2016-10-31T06:56:03.060Z,135
2016-10-31T06:57:03.019Z,140
2016-10-31T06:58:02.376Z,145
2016-10-31T06:59:03.247Z,145
2016-10-31T07:00:03.216Z,150
2016-10-31T07:01:03.171Z,155
2016-10-31T07:02:03.128Z,150
2016-10-31T07:03:02.785Z,140
2016-10-31T07:04:02.755Z,140
2016-10-31T07:05:03.014Z,130
2016-10-31T07:06:02.966Z,130
2016-10-31T07:07:02.928Z,130
2016-10-31T07:08:02.584Z,135
2016-10-31T07:09:02.842Z,140
2016-10-31T07:10:02.817Z,150
2016-10-31T07:11:02.822Z,155
2016-10-31T07:12:02.133Z,160
2016-10-31T07:13:02.693Z,170
2016-10-31T07:14:02.385Z,175
2016-10-31T07:15:02.306Z,180
2016-10-31T07:16:02.573Z,185
2016-10-31T07:17:02.240Z,170
2016-10-31T07:18:02.228Z,170
2016-10-31T07:19:02.152Z,200
2016-10-31T07:20:02.416Z,195
2016-10-31T07:21:02.381Z,195
2016-10-31T07:22:02.342Z,195
2016-10-31T07:23:01.999Z,175
2016-10-31T07:24:02.259Z,195
2016-10-31T07:25:02.223Z,245
2016-10-31T07:26:01.885Z,240
2016-10-31T07:27:02.145Z,220
2016-10-31T07:28:02.107Z,195
2016-10-31T07:29:02.062Z,240
2016-10-31T07:30:01.126Z,235
2016-10-31T07:31:01.998Z,230
2016-10-31T07:32:01.951Z,500
2016-10-31T07:33:01.948Z,550
2016-10-31T07:34:01.881Z,525
2016-10-31T07:35:01.537Z,565
2016-10-31T07:36:01.496Z,515
2016-10-31T07:37:01.760Z,295
2016-10-31T07:38:01.724Z,345
2016-10-31T07:39:01.385Z,615
2016-10-31T07:40:01.663Z,585
2016-10-31T07:41:01.311Z,280
2016-10-31T07:42:01.575Z,490
2016-10-31T07:43:01.235Z,675
2016-10-31T07:44:00.600Z,485
2016-10-31T07:45:01.474Z,700
2016-10-31T07:46:00.556Z,640
2016-10-31T07:47:01.392Z,725
2016-10-31T07:48:01.102Z,765
2016-10-31T07:49:00.720Z,245
2016-10-31T07:50:01.287Z,435
2016-10-31T07:51:00.959Z,360
2016-10-31T07:52:01.219Z,400
2016-10-31T07:53:00.288Z,645
2016-10-31T07:54:01.162Z,420
2016-10-31T07:55:01.126Z,340
2016-10-31T07:56:01.122Z,525
2016-10-31T07:57:01.055Z,360
2016-10-31T07:58:00.712Z,355
2016-10-31T07:59:01.308Z,475
2016-10-31T08:00:00.956Z,415
2016-10-31T08:01:00.606Z,355
2016-10-31T08:02:00.880Z,415
2016-10-31T08:03:00.544Z,405
2016-10-31T08:04:00.816Z,655
2016-10-31T08:05:00.479Z,615
2016-10-31T08:06:00.749Z,440
2016-10-31T08:07:00.453Z,525
2016-10-31T08:08:00.375Z,925
2016-10-31T08:09:00.353Z,980
2016-10-31T08:10:00.641Z,950
2016-10-31T08:11:00.622Z,1020
2016-10-31T08:12:00.547Z,1155
2016-10-31T08:13:00.521Z,1125
2016-10-31T08:14:00.486Z,1120
2016-10-31T08:15:00.144Z,1060
2016-10-31T08:16:00.416Z,1030
2016-10-31T08:17:00.389Z,1125
2016-10-31T08:18:00.351Z,1130
2016-10-31T08:19:00.027Z,1075
2016-10-31T08:20:00.010Z,990
2016-10-31T08:20:59.672Z,885
2016-10-31T08:21:59.652Z,885
2016-10-31T08:23:00.211Z,975
2016-10-31T08:24:00.183Z,905
2016-10-31T08:25:00.150Z,860
2016-10-31T08:25:59.824Z,660
2016-10-31T08:27:00.103Z,830
2016-10-31T08:28:00.065Z,905
2016-10-31T08:29:00.035Z,680
2016-10-31T08:29:59.402Z,635
2016-10-31T08:30:59.985Z,525
2016-10-31T08:31:59.953Z,565
2016-10-31T08:32:59.928Z,485
2016-10-31T08:33:59.899Z,500
2016-10-31T08:34:59.872Z,595
2016-10-31T08:35:59.846Z,650
2016-10-31T08:36:59.518Z,640
2016-10-31T08:37:59.789Z,460
2016-10-31T08:38:59.494Z,450
2016-10-31T08:39:59.729Z,530
2016-10-31T08:40:59.701Z,585
2016-10-31T08:41:59.681Z,545
2016-10-31T08:42:59.342Z,485
2016-10-31T08:43:59.309Z,495
2016-10-31T08:44:59.283Z,540
2016-10-31T08:45:59.562Z,615
2016-10-31T08:46:59.229Z,665
2016-10-31T08:47:59.506Z,845
2016-10-31T08:48:59.168Z,900
2016-10-31T08:49:59.137Z,1160
2016-10-31T08:50:59.405Z,975
2016-10-31T08:51:59.083Z,760
2016-10-31T08:52:59.051Z,525
2016-10-31T08:53:59.421Z,460
2016-10-31T08:54:58.688Z,450
2016-10-31T08:55:58.955Z,470
2016-10-31T08:56:59.267Z,505
2016-10-31T08:57:58.910Z,515
2016-10-31T08:58:58.872Z,550
2016-10-31T08:59:59.143Z,520
2016-10-31T09:00:59.117Z,500
2016-10-31T09:01:59.083Z,500
2016-10-31T09:02:59.069Z,530
2016-10-31T09:03:58.729Z,545
2016-10-31T09:04:58.714Z,510
2016-10-31T09:05:58.709Z,505
2016-10-31T09:06:59.083Z,580
2016-10-31T09:07:58.612Z,710
2016-10-31T09:08:58.570Z,740
2016-10-31T09:09:58.545Z,555
2016-10-31T09:10:58.868Z,550
2016-10-31T09:11:58.787Z,840
2016-10-31T09:12:58.757Z,1115
2016-10-31T09:13:58.723Z,1125
2016-10-31T09:14:58.702Z,985
2016-10-31T09:15:58.669Z,975
2016-10-31T09:16:58.644Z,875
2016-10-31T09:17:58.606Z,900
2016-10-31T09:18:58.581Z,880
2016-10-31T09:19:58.549Z,930
2016-10-31T09:20:58.216Z,990
2016-10-31T09:21:58.503Z,695
2016-10-31T09:22:58.461Z,815
2016-10-31T09:23:58.136Z,755
2016-10-31T09:24:58.407Z,720
2016-10-31T09:25:58.081Z,1090
2016-10-31T09:26:58.047Z,1030
2016-10-31T09:27:57.725Z,830
2016-10-31T09:28:58.295Z,825
2016-10-31T09:29:58.262Z,830
2016-10-31T09:30:57.932Z,720
2016-10-31T09:31:58.209Z,750
2016-10-31T09:32:57.883Z,795
2016-10-31T09:33:58.148Z,895
2016-10-31T09:34:58.121Z,905
2016-10-31T09:35:57.789Z,1170
2016-10-31T09:36:57.769Z,1090
2016-10-31T09:37:57.448Z,1240
2016-10-31T09:38:58.187Z,1620
2016-10-31T09:39:57.415Z,1120
2016-10-31T09:40:57.971Z,965
2016-10-31T09:41:57.930Z,815
2016-10-31T09:42:57.906Z,860
2016-10-31T09:43:57.877Z,990
2016-10-31T09:44:57.854Z,990
2016-10-31T09:45:57.826Z,1560
2016-10-31T09:46:57.497Z,810
2016-10-31T09:47:57.823Z,705
2016-10-31T09:48:57.745Z,635
2016-10-31T09:49:57.721Z,705
2016-10-31T09:50:57.696Z,645
2016-10-31T09:51:57.687Z,800
2016-10-31T09:52:57.040Z,1125
2016-10-31T09:53:57.613Z,1125
2016-10-31T09:54:57.588Z,870
2016-10-31T09:55:57.573Z,1200
2016-10-31T09:56:57.538Z,650
2016-10-31T09:57:57.543Z,1025
2016-10-31T09:58:57.182Z,1100
2016-10-31T09:59:57.452Z,595
2016-10-31T10:00:57.124Z,530
2016-10-31T10:01:57.441Z,460
2016-10-31T10:02:57.064Z,475
2016-10-31T10:03:57.346Z,450
2016-10-31T10:04:56.713Z,465
2016-10-31T10:05:57.286Z,475
2016-10-31T10:06:57.263Z,465
2016-10-31T10:07:56.671Z,435
2016-10-31T10:08:57.201Z,390
2016-10-31T10:09:56.573Z,365
2016-10-31T10:10:57.180Z,345
2016-10-31T10:11:56.829Z,340
2016-10-31T10:12:57.090Z,340
2016-10-31T10:13:57.069Z,330
2016-10-31T10:14:56.721Z,315
2016-10-31T10:15:56.998Z,300
2016-10-31T10:16:56.659Z,300
2016-10-31T10:17:56.931Z,285
2016-10-31T10:18:57.067Z,280
2016-10-31T10:19:56.877Z,280
2016-10-31T10:20:57.114Z,280
2016-10-31T10:21:56.832Z,275
2016-10-31T10:22:56.174Z,275
2016-10-31T10:23:56.445Z,300
2016-10-31T10:24:56.715Z,385
2016-10-31T10:25:56.691Z,845
2016-10-31T10:26:56.347Z,805
2016-10-31T10:27:56.626Z,815
2016-10-31T10:28:56.584Z,795
2016-10-31T10:29:56.592Z,820
2016-10-31T10:30:56.526Z,845
2016-10-31T10:31:56.500Z,845
2016-10-31T10:32:56.205Z,715
2016-10-31T10:33:56.438Z,805
2016-10-31T10:34:56.401Z,640
2016-10-31T10:35:55.767Z,690
2016-10-31T10:36:56.081Z,910
2016-10-31T10:37:56.334Z,645
2016-10-31T10:38:56.297Z,580
2016-10-31T10:39:56.263Z,825
2016-10-31T10:40:55.639Z,840
2016-10-31T10:41:56.202Z,715
2016-10-31T10:42:55.865Z,820
2016-10-31T10:43:55.838Z,750
2016-10-31T10:44:55.547Z,845
2016-10-31T10:45:56.122Z,880
2016-10-31T10:46:56.059Z,1010
2016-10-31T10:47:56.023Z,1235
2016-10-31T10:48:55.395Z,1345
2016-10-31T10:49:55.968Z,1365
2016-10-31T10:50:55.980Z,1345
2016-10-31T10:51:55.355Z,1355
2016-10-31T10:52:55.585Z,1380
2016-10-31T10:53:55.561Z,1350
2016-10-31T10:54:55.831Z,1280
2016-10-31T10:55:55.805Z,1185
2016-10-31T10:56:55.199Z,920
2016-10-31T10:57:55.759Z,1230
2016-10-31T10:58:55.429Z,795
2016-10-31T10:59:55.698Z,775
2016-10-31T11:00:55.381Z,605
2016-10-31T11:01:55.340Z,410
2016-10-31T11:02:55.624Z,425
2016-10-31T11:03:55.591Z,565
2016-10-31T11:04:55.262Z,630
2016-10-31T11:05:55.580Z,645
2016-10-31T11:06:55.211Z,535
2016-10-31T11:07:55.480Z,465
2016-10-31T11:08:55.450Z,465
2016-10-31T11:09:55.429Z,450
2016-10-31T11:10:55.401Z,450
2016-10-31T11:11:55.066Z,455
2016-10-31T11:12:55.355Z,450
2016-10-31T11:13:55.011Z,480
2016-10-31T11:14:55.283Z,485
2016-10-31T11:15:54.963Z,415
2016-10-31T11:16:55.230Z,1000
2016-10-31T11:17:54.913Z,865
2016-10-31T11:18:55.169Z,530
2016-10-31T11:19:54.537Z,540
2016-10-31T11:20:54.803Z,380
2016-10-31T11:21:55.083Z,415
2016-10-31T11:22:54.748Z,395
2016-10-31T11:23:55.057Z,385
2016-10-31T11:24:54.396Z,375
2016-10-31T11:25:54.958Z,365
2016-10-31T11:26:54.625Z,350
2016-10-31T11:27:54.904Z,350
2016-10-31T11:28:54.568Z,345
2016-10-31T11:29:54.838Z,335
2016-10-31T11:30:54.808Z,350
2016-10-31T11:31:54.786Z,335
2016-10-31T11:32:54.183Z,320
2016-10-31T11:33:54.413Z,315
2016-10-31T11:34:54.690Z,310
2016-10-31T11:35:54.352Z,310
2016-10-31T11:36:54.625Z,305
2016-10-31T11:37:54.620Z,300
2016-10-31T11:38:53.954Z,290
2016-10-31T11:39:54.533Z,285
2016-10-31T11:40:54.495Z,280
2016-10-31T11:41:54.468Z,275
2016-10-31T11:42:54.128Z,270
2016-10-31T11:43:54.402Z,265
2016-10-31T11:44:54.373Z,265
2016-10-31T11:45:54.335Z,260
2016-10-31T11:46:54.313Z,250
2016-10-31T11:47:53.967Z,250
2016-10-31T11:48:54.238Z,240
2016-10-31T11:49:53.909Z,235
2016-10-31T11:50:54.171Z,230
2016-10-31T11:51:53.842Z,225
2016-10-31T11:52:53.838Z,225
2016-10-31T11:53:53.467Z,230
2016-10-31T11:54:54.047Z,230
2016-10-31T11:55:53.712Z,235
2016-10-31T11:56:53.719Z,245
2016-10-31T11:57:53.642Z,260
2016-10-31T11:58:53.909Z,265
2016-10-31T11:59:53.875Z,260
2016-10-31T12:00:53.544Z,260
2016-10-31T12:01:53.813Z,255
2016-10-31T12:02:53.790Z,255
2016-10-31T12:03:53.439Z,260
2016-10-31T12:04:53.104Z,270
2016-10-31T12:05:53.676Z,265
2016-10-31T12:06:53.644Z,255
2016-10-31T12:07:53.003Z,250
2016-10-31T12:08:52.987Z,245
2016-10-31T12:09:53.234Z,235
2016-10-31T12:10:53.520Z,225
2016-10-31T12:11:53.474Z,225
2016-10-31T12:12:53.437Z,225
2016-10-31T12:13:53.110Z,225
2016-10-31T12:14:53.377Z,215
2016-10-31T12:15:53.038Z,205
2016-10-31T12:16:53.348Z,210
2016-10-31T12:17:53.297Z,210
2016-10-31T12:18:52.668Z,205
2016-10-31T12:19:53.216Z,205
2016-10-31T12:20:53.187Z,200
2016-10-31T12:21:52.547Z,195
2016-10-31T12:22:53.104Z,195
2016-10-31T12:23:53.071Z,195
2016-10-31T12:24:52.736Z,190
2016-10-31T12:25:53.017Z,190
2016-10-31T12:26:52.364Z,185
2016-10-31T12:27:52.980Z,185
2016-10-31T12:28:52.901Z,175
2016-10-31T12:29:52.867Z,170
2016-10-31T12:30:52.528Z,170
2016-10-31T12:31:52.799Z,180
2016-10-31T12:32:52.464Z,175
2016-10-31T12:33:52.426Z,175
2016-10-31T12:34:52.709Z,175
2016-10-31T12:35:52.063Z,170
2016-10-31T12:36:52.341Z,170
2016-10-31T12:37:51.991Z,170
2016-10-31T12:38:52.562Z,170
2016-10-31T12:39:52.525Z,165
2016-10-31T12:40:52.492Z,165
2016-10-31T12:41:52.472Z,170
2016-10-31T12:42:52.125Z,165
2016-10-31T12:43:52.405Z,160
2016-10-31T12:44:52.369Z,160
2016-10-31T12:45:52.019Z,160
2016-10-31T12:46:52.296Z,160
2016-10-31T12:47:52.263Z,160
2016-10-31T12:48:51.623Z,160
2016-10-31T12:49:52.194Z,160
2016-10-31T12:50:51.909Z,160
2016-10-31T12:51:52.125Z,160
2016-10-31T12:52:51.821Z,155
2016-10-31T12:53:51.450Z,155
2016-10-31T12:54:52.021Z,155
2016-10-31T12:55:51.988Z,155
2016-10-31T12:56:51.952Z,155
2016-10-31T12:57:51.921Z,150
2016-10-31T12:58:51.884Z,150
2016-10-31T12:59:51.548Z,150
2016-10-31T13:00:51.821Z,145
2016-10-31T13:01:51.482Z,145
2016-10-31T13:02:51.485Z,140
2016-10-31T13:03:51.111Z,140
2016-10-31T13:04:51.683Z,140
2016-10-31T13:05:51.648Z,135
2016-10-31T13:06:51.315Z,135
2016-10-31T13:07:51.582Z,140
2016-10-31T13:08:51.251Z,135
2016-10-31T13:09:51.517Z,135
2016-10-31T13:10:51.476Z,135
2016-10-31T13:11:51.483Z,130
2016-10-31T13:12:51.409Z,130
2016-10-31T13:13:51.376Z,125
2016-10-31T13:14:51.076Z,120
2016-10-31T13:15:51.303Z,120
2016-10-31T13:16:51.272Z,110
2016-10-31T13:17:50.934Z,110
2016-10-31T13:18:51.207Z,115
2016-10-31T13:19:51.170Z,125
2016-10-31T13:20:50.829Z,125
2016-10-31T13:21:51.105Z,125
2016-10-31T13:22:51.071Z,125
2016-10-31T13:23:50.769Z,125
2016-10-31T13:24:51.005Z,125
2016-10-31T13:25:50.969Z,125
2016-10-31T13:26:50.625Z,120
2016-10-31T13:27:50.903Z,120
2016-10-31T13:28:50.863Z,120
2016-10-31T13:29:50.598Z,125
2016-10-31T13:30:50.491Z,125
2016-10-31T13:31:50.756Z,125
2016-10-31T13:32:50.724Z,130
2016-10-31T13:33:50.390Z,120
2016-10-31T13:34:50.346Z,120
2016-10-31T13:35:50.329Z,120
2016-10-31T13:36:50.289Z,120
2016-10-31T13:37:49.956Z,120
2016-10-31T13:38:50.212Z,120
2016-10-31T13:39:50.174Z,115
2016-10-31T13:40:50.152Z,115
2016-10-31T13:41:50.452Z,115
2016-10-31T13:42:50.375Z,115
2016-10-31T13:43:50.347Z,115
2016-10-31T13:44:50.311Z,120
2016-10-31T13:45:50.289Z,120
2016-10-31T13:46:50.246Z,120
2016-10-31T13:47:50.199Z,125
2016-10-31T13:48:50.168Z,120
2016-10-31T13:49:50.144Z,115
2016-10-31T13:50:49.795Z,115
2016-10-31T13:51:49.769Z,115
2016-10-31T13:52:50.043Z,115
2016-10-31T13:53:50.000Z,115
2016-10-31T13:54:49.969Z,115
2016-10-31T13:55:49.927Z,115
2016-10-31T13:56:49.892Z,115
2016-10-31T13:57:49.560Z,110
2016-10-31T13:58:49.523Z,110
2016-10-31T13:59:49.487Z,110
2016-10-31T14:00:49.753Z,110
2016-10-31T14:01:48.857Z,110
2016-10-31T14:02:49.710Z,110
2016-10-31T14:03:49.360Z,110
2016-10-31T14:04:49.621Z,110
2016-10-31T14:05:49.579Z,105
2016-10-31T14:06:49.544Z,105
2016-10-31T14:07:49.522Z,105
2016-10-31T14:08:49.473Z,105
2016-10-31T14:09:49.140Z,105
2016-10-31T14:10:49.405Z,105
2016-10-31T14:11:49.071Z,105